Time;durP1;ratioP1;P1;durP2;ratioP2;P2;SDS_P1;SDS_P2;PMS_P1;PMS_P2;Temp;Humidity;BMP_temperature;BMP_pressure;BME280_temperature;BME280_humidity;BME280_pressure;Samples;Min_cycle;Max_cycle;Signal;HPM_P1;HPM_P2
2022/11/23 00:01:26;;;;;;;8.52;4.10;;;;;;;3.81;99.63;95017.88;5071758;28;20044;-88
2022/11/23 00:03:57;;;;;;;6.95;3.83;;;;;;;3.84;99.45;95020.78;5090056;28;20043;-89
2022/11/23 00:06:25;;;;;;;7.57;3.85;;;;;;;3.87;98.93;95022.84;5077528;28;20041;-87
2022/11/23 00:08:52;;;;;;;9.63;4.10;;;;;;;3.96;98.90;95019.41;5062286;28;20044;-90
2022/11/23 00:11:20;;;;;;;6.57;3.78;;;;;;;4.07;98.52;95015.34;5070793;28;20495;-88
2022/11/23 00:13:47;;;;;;;7.95;4.20;;;;;;;4.14;98.02;95018.41;5071992;28;20624;-89
2022/11/23 00:16:16;;;;;;;7.18;3.40;;;;;;;4.24;97.81;95018.16;5070595;28;20039;-88
2022/11/23 00:18:43;;;;;;;8.85;3.50;;;;;;;4.28;98.03;95024.50;5071389;28;20044;-89
2022/11/23 00:21:12;;;;;;;8.95;3.80;;;;;;;4.07;97.91;95024.25;5071362;28;20041;-88
2022/11/23 00:23:39;;;;;;;9.82;3.70;;;;;;;4.22;97.92;95023.03;5071693;28;20053;-89
2022/11/23 00:26:06;;;;;;;9.23;3.88;;;;;;;4.35;97.40;95032.13;5063573;28;20132;-88
2022/11/23 00:28:33;;;;;;;6.45;3.80;;;;;;;4.40;96.85;95030.09;5052414;28;20426;-87
2022/11/23 00:31:00;;;;;;;7.55;4.10;;;;;;;4.28;96.86;95032.59;5070575;28;20194;-90
2022/11/23 00:33:26;;;;;;;7.75;3.50;;;;;;;4.39;97.15;95028.53;5067508;28;20041;-89
2022/11/23 00:36:00;;;;;;;4.45;3.00;;;;;;;4.43;96.42;95034.84;5071004;28;20040;-88
2022/11/23 00:38:28;;;;;;;6.53;3.42;;;;;;;4.45;96.23;95029.97;5070447;28;20048;-88
2022/11/23 00:40:59;;;;;;;7.43;3.33;;;;;;;4.48;95.95;95028.53;5071378;28;20059;-89
2022/11/23 00:43:26;;;;;;;9.15;3.53;;;;;;;4.50;96.09;95029.03;5070459;28;20066;-87
2022/11/23 00:46:03;;;;;;;10.50;3.28;;;;;;;4.53;96.07;95028.41;5070963;28;20052;-89
2022/11/23 00:48:30;;;;;;;5.18;3.08;;;;;;;4.59;95.82;95032.53;5070711;28;20479;-89
2022/11/23 00:50:56;;;;;;;5.07;3.00;;;;;;;4.64;95.79;95028.91;5070870;28;20044;-87
2022/11/23 00:53:23;;;;;;;5.45;3.30;;;;;;;4.62;96.02;95021.13;5052668;28;20121;-89
2022/11/23 00:55:52;;;;;;;9.68;3.10;;;;;;;4.66;95.84;95022.09;5069606;28;20040;-90
2022/11/23 00:58:19;;;;;;;5.90;3.30;;;;;;;4.64;95.87;95027.00;5050512;28;20045;-89
2022/11/23 01:00:46;;;;;;;6.97;3.28;;;;;;;4.65;95.69;95027.81;5051020;28;20045;-88
2022/11/23 01:03:12;;;;;;;7.45;3.28;;;;;;;4.50;95.68;95039.03;5050559;28;20041;-88
2022/11/23 01:05:39;;;;;;;5.72;3.08;;;;;;;4.35;96.65;95032.94;5053592;28;20055;-89
2022/11/23 01:08:06;;;;;;;7.82;3.35;;;;;;;4.48;96.43;95036.63;5070043;28;20128;-88
2022/11/23 01:10:33;;;;;;;8.13;3.72;;;;;;;4.41;96.56;95038.97;5070466;28;20040;-88
2022/11/23 01:13:01;;;;;;;7.82;3.10;;;;;;;4.38;96.82;95043.06;5067859;28;20048;-88
2022/11/23 01:15:27;;;;;;;9.57;3.20;;;;;;;4.33;97.33;95039.72;5050313;28;20041;-89
2022/11/23 01:17:54;;;;;;;6.85;3.03;;;;;;;4.29;97.73;95042.25;5050714;28;20406;-88
2022/11/23 01:20:20;;;;;;;6.40;3.60;;;;;;;4.21;98.76;95048.38;5049919;28;20380;-88
2022/11/23 01:22:47;;;;;;;7.35;3.30;;;;;;;3.88;100.00;95037.91;5050017;28;20037;-89
2022/11/23 01:25:13;;;;;;;7.63;3.05;;;;;;;3.86;100.00;95042.81;5050019;28;20065;-89
2022/11/23 01:27:40;;;;;;;9.52;3.00;;;;;;;3.83;100.00;95045.31;5050437;28;20048;-88
2022/11/23 01:30:10;;;;;;;6.60;2.95;;;;;;;3.86;100.00;95045.50;5049809;28;20377;-88
2022/11/23 01:32:37;;;;;;;8.35;2.95;;;;;;;3.77;100.00;95044.66;5050327;28;20059;-88
2022/11/23 01:35:04;;;;;;;9.35;3.13;;;;;;;3.66;100.00;95048.69;5050091;28;20120;-87
2022/11/23 01:37:30;;;;;;;6.05;3.35;;;;;;;3.69;100.00;95042.69;5067363;28;20049;-88
2022/11/23 01:39:57;;;;;;;7.45;3.17;;;;;;;3.73;100.00;95049.06;5070320;28;20093;-88
2022/11/23 01:42:39;;;;;;;4.65;2.40;;;;;;;3.85;100.00;95037.72;5056815;28;20067;-89
2022/11/23 01:45:35;;;;;;;8.95;3.03;;;;;;;3.98;100.00;95028.00;5050023;28;20044;-88
2022/11/23 01:48:05;;;;;;;5.45;2.50;;;;;;;3.93;100.00;95029.72;5047400;28;20044;-88
2022/11/23 01:50:32;;;;;;;6.45;2.75;;;;;;;4.03;100.00;95036.75;5049930;28;20048;-89
2022/11/23 01:52:59;;;;;;;11.18;2.70;;;;;;;4.01;100.00;95033.53;5049838;28;20491;-89
2022/11/23 01:55:27;;;;;;;7.00;2.72;;;;;;;4.08;100.00;95033.13;5049842;28;20044;-89
2022/11/23 01:57:54;;;;;;;7.30;3.03;;;;;;;4.06;100.00;95036.09;5069602;28;20506;-90
2022/11/23 02:00:21;;;;;;;7.00;2.35;;;;;;;4.06;100.00;95040.69;5069544;28;20052;-89
2022/11/23 02:02:54;;;;;;;5.97;2.50;;;;;;;4.07;100.00;95053.06;5069882;28;20040;-86
2022/11/23 02:05:25;;;;;;;6.38;2.47;;;;;;;4.08;100.00;95044.69;5069434;28;20456;-89
2022/11/23 02:07:52;;;;;;;4.22;2.13;;;;;;;4.14;100.00;95054.22;5052333;28;20044;-89
2022/11/23 02:10:21;;;;;;;8.68;2.55;;;;;;;4.18;100.00;95054.41;5055607;28;20053;-89
2022/11/23 02:12:48;;;;;;;8.30;2.67;;;;;;;4.27;100.00;95052.53;5066347;28;20127;-89
2022/11/23 02:15:15;;;;;;;4.88;2.10;;;;;;;4.27;100.00;95057.94;5069238;28;20068;-89
2022/11/23 02:17:42;;;;;;;3.55;1.95;;;;;;;4.32;100.00;95057.78;5069307;28;20067;-89
2022/11/23 02:20:14;;;;;;;5.90;2.58;;;;;;;4.34;100.00;95052.91;5069154;28;20052;-88
2022/11/23 02:22:51;;;;;;;5.07;2.60;;;;;;;4.35;100.00;95057.19;5069837;28;20045;-89
2022/11/23 02:25:28;;;;;;;4.05;2.30;;;;;;;4.37;100.00;95057.66;5069030;28;20127;-88
2022/11/23 02:27:56;;;;;;;6.35;2.95;;;;;;;4.28;100.00;95054.16;5050894;28;20044;-89
2022/11/23 02:30:23;;;;;;;5.47;2.97;;;;;;;4.27;100.00;95052.53;5049300;28;20053;-89
2022/11/23 02:32:49;;;;;;;5.28;2.72;;;;;;;4.24;100.00;95052.38;5049671;28;20622;-89
2022/11/23 02:35:16;;;;;;;4.85;2.47;;;;;;;4.25;100.00;95053.97;5052183;28;20048;-88
2022/11/23 02:37:43;;;;;;;8.65;2.92;;;;;;;4.24;100.00;95053.19;5056553;28;20041;-89
2022/11/23 02:40:20;;;;;;;6.47;2.55;;;;;;;4.26;100.00;95056.34;5053037;28;20072;-89
2022/11/23 02:42:49;;;;;;;10.38;2.75;;;;;;;4.25;100.00;95054.75;5070004;28;20127;-88
2022/11/23 02:45:26;;;;;;;4.63;2.40;;;;;;;4.27;100.00;95057.94;5071734;28;20044;-89
2022/11/23 02:47:53;;;;;;;6.65;2.60;;;;;;;4.15;100.00;95055.03;5053238;28;20056;-89
2022/11/23 02:50:20;;;;;;;7.65;3.00;;;;;;;4.11;100.00;95051.34;5052963;28;20052;-89
2022/11/23 02:52:46;;;;;;;6.18;2.72;;;;;;;4.13;100.00;95051.84;5053384;28;20547;-88
2022/11/23 02:55:13;;;;;;;6.45;2.70;;;;;;;4.17;100.00;95060.88;5052885;28;20045;-89
2022/11/23 02:57:39;;;;;;;5.13;2.60;;;;;;;4.20;100.00;95057.59;5072531;28;20056;-89
2022/11/23 03:00:07;;;;;;;4.78;2.55;;;;;;;4.19;100.00;95056.78;5072487;28;20045;-89
2022/11/23 03:02:35;;;;;;;4.90;2.47;;;;;;;4.18;100.00;95055.22;5073062;28;20583;-89
2022/11/23 03:05:02;;;;;;;3.63;2.38;;;;;;;4.18;100.00;95059.81;5054856;28;20045;-88
2022/11/23 03:07:28;;;;;;;7.63;2.65;;;;;;;4.16;100.00;95056.59;5053014;28;20045;-89
2022/11/23 03:09:55;;;;;;;4.05;2.25;;;;;;;4.14;100.00;95058.81;5053072;28;20047;-89
2022/11/23 03:12:23;;;;;;;3.72;2.35;;;;;;;4.13;100.00;95055.34;5065353;28;20052;-89
2022/11/23 03:14:49;;;;;;;5.10;2.42;;;;;;;4.13;100.00;95068.81;5072816;28;20090;-88
2022/11/23 03:17:16;;;;;;;4.72;2.70;;;;;;;4.11;100.00;95062.13;5056299;28;20040;-89
2022/11/23 03:19:44;;;;;;;5.85;2.90;;;;;;;4.10;100.00;95066.72;5052877;28;20037;-89
2022/11/23 03:22:10;;;;;;;6.05;2.85;;;;;;;4.11;100.00;95067.50;5052328;28;20098;-87
2022/11/23 03:24:37;;;;;;;4.95;2.30;;;;;;;4.07;100.00;95063.84;5059435;28;20049;-89
2022/11/23 03:27:04;;;;;;;7.13;3.10;;;;;;;4.00;100.00;95069.66;5057922;28;20048;-89
2022/11/23 03:29:30;;;;;;;5.82;2.80;;;;;;;3.99;100.00;95070.78;5052633;28;20044;-88
2022/11/23 03:31:57;;;;;;;5.18;2.80;;;;;;;3.98;100.00;95071.88;5052563;28;20048;-88
2022/11/23 03:34:23;;;;;;;5.47;3.17;;;;;;;4.02;100.00;95069.34;5052208;28;20048;-90
2022/11/23 03:36:52;;;;;;;5.15;3.25;;;;;;;4.05;100.00;95071.44;5052806;28;20045;-88
2022/11/23 03:39:18;;;;;;;4.95;2.72;;;;;;;4.09;100.00;95072.41;5051986;28;20041;-88
2022/11/23 03:41:45;;;;;;;6.25;3.47;;;;;;;4.12;100.00;95072.63;5060308;28;20059;-88
2022/11/23 03:44:11;;;;;;;4.28;2.88;;;;;;;4.13;100.00;95068.81;5071720;28;20047;-89
2022/11/23 03:46:38;;;;;;;5.38;3.08;;;;;;;4.16;100.00;95067.38;5061283;28;20040;-89
2022/11/23 03:49:05;;;;;;;5.50;3.13;;;;;;;4.15;100.00;95065.78;5051702;28;20045;-89
2022/11/23 03:51:31;;;;;;;4.80;2.83;;;;;;;4.17;100.00;95068.97;5052114;28;20052;-87
2022/11/23 03:53:59;;;;;;;5.95;3.63;;;;;;;4.19;100.00;95067.56;5052212;28;20052;-89
2022/11/23 03:56:26;;;;;;;8.30;3.70;;;;;;;4.20;100.00;95068.38;5052782;28;20041;-88
2022/11/23 03:58:52;;;;;;;10.95;5.10;;;;;;;4.21;100.00;95063.75;5052024;28;20649;-87
2022/11/23 04:01:19;;;;;;;8.52;3.90;;;;;;;4.16;100.00;95062.00;5051555;28;20044;-89
2022/11/23 04:03:45;;;;;;;9.30;4.53;;;;;;;4.18;100.00;95059.81;5066832;28;20046;-89
2022/11/23 04:06:12;;;;;;;7.55;4.25;;;;;;;4.21;100.00;95069.16;5065983;28;20404;-89
2022/11/23 04:08:38;;;;;;;10.50;3.95;;;;;;;4.22;100.00;95066.13;5051940;28;20033;-89
2022/11/23 04:11:06;;;;;;;6.60;4.35;;;;;;;4.27;100.00;95062.53;5054049;28;20041;-89
2022/11/23 04:13:33;;;;;;;7.32;3.83;;;;;;;4.30;100.00;95062.72;5051972;28;20051;-89
2022/11/23 04:15:59;;;;;;;7.03;3.83;;;;;;;4.31;100.00;95058.91;5054375;28;20048;-90
2022/11/23 04:18:26;;;;;;;9.40;4.25;;;;;;;4.34;100.00;95061.00;5071134;28;20068;-89
2022/11/23 04:20:53;;;;;;;8.55;4.50;;;;;;;4.36;100.00;95061.47;5071532;28;20044;-90
2022/11/23 04:23:19;;;;;;;6.50;4.13;;;;;;;4.37;100.00;95056.88;5058204;28;20072;-89
2022/11/23 04:25:46;;;;;;;7.07;4.13;;;;;;;4.38;100.00;95056.56;5051687;28;20041;-89
2022/11/23 04:28:14;;;;;;;5.95;4.00;;;;;;;4.37;100.00;95056.88;5051272;28;20124;-87
2022/11/23 04:30:41;;;;;;;6.53;3.85;;;;;;;4.36;100.00;95064.16;5051315;28;20098;-89
2022/11/23 04:33:07;;;;;;;7.75;4.20;;;;;;;4.35;100.00;95059.09;5051074;28;20037;-89
2022/11/23 04:35:35;;;;;;;8.20;4.15;;;;;;;4.35;100.00;95054.50;5051293;28;20055;-88
2022/11/23 04:38:02;;;;;;;5.88;3.60;;;;;;;4.32;100.00;95059.69;5070063;28;20115;-86
2022/11/23 04:40:30;;;;;;;8.18;4.28;;;;;;;4.29;100.00;95049.56;5071044;28;20682;-89
2022/11/23 04:42:57;;;;;;;8.90;4.65;;;;;;;4.24;100.00;95053.19;5054115;28;20132;-88
2022/11/23 04:45:25;;;;;;;9.27;5.50;;;;;;;4.22;100.00;95049.97;5050720;28;20045;-89
2022/11/23 04:47:51;;;;;;;8.85;5.00;;;;;;;4.18;100.00;95052.50;5050935;28;20114;-88
2022/11/23 04:50:18;;;;;;;7.78;4.70;;;;;;;4.17;100.00;95052.81;5050566;28;20056;-88
2022/11/23 04:52:45;;;;;;;7.22;4.07;;;;;;;4.16;100.00;95049.31;5051071;28;20044;-90
2022/11/23 04:55:11;;;;;;;6.68;3.78;;;;;;;4.14;100.00;95048.84;5064853;28;20093;-88
2022/11/23 04:57:38;;;;;;;7.53;4.10;;;;;;;4.17;100.00;95052.81;5069929;28;20067;-88
2022/11/23 05:00:05;;;;;;;6.53;3.65;;;;;;;4.16;100.00;95056.59;5070054;28;20044;-89
2022/11/23 05:02:33;;;;;;;6.72;4.28;;;;;;;4.15;100.00;95060.41;5071051;28;20045;-89
2022/11/23 05:05:00;;;;;;;6.70;4.03;;;;;;;4.13;100.00;95052.66;5070694;28;20044;-89
2022/11/23 05:07:26;;;;;;;7.82;4.57;;;;;;;4.11;100.00;95048.66;5056481;28;20044;-87
2022/11/23 05:09:53;;;;;;;8.55;3.88;;;;;;;4.11;100.00;95059.44;5050918;28;20041;-88
2022/11/23 05:12:19;;;;;;;7.05;3.78;;;;;;;4.11;100.00;95054.03;5062586;28;20049;-88
2022/11/23 05:14:46;;;;;;;6.15;3.65;;;;;;;4.13;100.00;95054.53;5069825;28;20056;-88
2022/11/23 05:17:12;;;;;;;9.20;3.55;;;;;;;4.14;100.00;95053.44;5069822;28;20041;-89
2022/11/23 05:19:40;;;;;;;5.57;3.80;;;;;;;4.11;100.00;95054.03;5070539;28;20207;-87
2022/11/23 05:22:07;;;;;;;8.60;4.18;;;;;;;4.12;100.00;95050.22;5069653;28;20045;-88
2022/11/23 05:24:33;;;;;;;6.38;3.45;;;;;;;4.10;100.00;95044.38;5070508;28;20062;-89
2022/11/23 05:27:00;;;;;;;5.35;3.45;;;;;;;4.08;100.00;95039.31;5069763;28;20054;-89
2022/11/23 05:29:27;;;;;;;6.13;3.65;;;;;;;4.08;100.00;95051.97;5069684;28;20051;-88
2022/11/23 05:31:54;;;;;;;7.53;3.88;;;;;;;4.08;100.00;95049.28;5070304;28;20076;-88
2022/11/23 05:34:20;;;;;;;9.93;4.38;;;;;;;4.06;100.00;95048.78;5069837;28;20105;-88
2022/11/23 05:36:48;;;;;;;12.40;5.57;;;;;;;4.05;100.00;95056.06;5067803;28;20415;-88
2022/11/23 05:39:15;;;;;;;16.88;7.75;;;;;;;4.03;100.00;95052.91;5069891;28;20041;-88
2022/11/23 05:41:41;;;;;;;27.52;11.23;;;;;;;4.03;100.00;95050.22;5063424;28;20041;-89
2022/11/23 05:44:08;;;;;;;39.83;13.73;;;;;;;4.02;100.00;95062.09;5049674;28;20037;-88
2022/11/23 05:46:34;;;;;;;25.77;10.95;;;;;;;4.01;100.00;95052.41;5063237;28;20055;-88
2022/11/23 05:49:01;;;;;;;24.45;9.00;;;;;;;4.01;100.00;95055.09;5069373;28;20052;-89
2022/11/23 05:51:27;;;;;;;17.83;8.07;;;;;;;4.00;100.00;95053.50;5069521;28;20032;-89
2022/11/23 05:53:57;;;;;;;21.55;8.88;;;;;;;3.99;100.00;95051.13;5070110;28;20052;-89
2022/11/23 05:56:23;;;;;;;27.17;8.95;;;;;;;4.00;100.00;95052.72;5067634;28;20046;-89
2022/11/23 05:58:50;;;;;;;22.48;8.88;;;;;;;3.98;100.00;95049.53;5069712;28;20051;-89
2022/11/23 06:01:16;;;;;;;21.30;8.95;;;;;;;3.97;100.00;95056.00;5069412;28;20052;-88
2022/11/23 06:03:43;;;;;;;16.80;7.40;;;;;;;3.95;100.00;95056.31;5070139;28;20040;-90
2022/11/23 06:06:10;;;;;;;17.98;6.88;;;;;;;3.95;100.00;95055.53;5068187;28;20050;-88
2022/11/23 06:08:36;;;;;;;11.77;5.85;;;;;;;3.92;100.00;95052.34;5069624;28;20036;-88
2022/11/23 06:11:04;;;;;;;13.68;5.63;;;;;;;3.90;100.00;95054.53;5066891;28;20037;-89
2022/11/23 06:13:31;;;;;;;11.18;5.40;;;;;;;3.89;100.00;95047.56;5069784;28;20044;-89
2022/11/23 06:15:57;;;;;;;10.85;5.80;;;;;;;3.89;100.00;95052.97;5068753;28;20045;-87
2022/11/23 06:18:24;;;;;;;11.15;6.38;;;;;;;3.86;100.00;95050.91;5068998;28;20052;-89
2022/11/23 06:20:54;;;;;;;11.27;6.13;;;;;;;3.88;100.00;95051.38;5069664;28;20064;-88
2022/11/23 06:23:20;;;;;;;10.52;6.38;;;;;;;3.90;100.00;95056.44;5068888;28;20529;-88
2022/11/23 06:25:47;;;;;;;12.85;6.13;;;;;;;3.92;100.00;95056.94;5068977;28;20047;-89
2022/11/23 06:28:14;;;;;;;10.63;5.78;;;;;;;3.92;100.00;95055.06;5068761;28;20039;-88
2022/11/23 06:30:41;;;;;;;10.25;5.15;;;;;;;3.95;100.00;95050.16;5069507;28;20051;-89
2022/11/23 06:33:08;;;;;;;8.68;4.93;;;;;;;3.98;100.00;95057.63;5069016;28;20041;-88
2022/11/23 06:35:34;;;;;;;9.90;4.85;;;;;;;3.94;100.00;95054.72;5068091;28;20198;-89
2022/11/23 06:38:01;;;;;;;9.50;4.70;;;;;;;3.89;100.00;95052.97;5068485;28;20036;-88
2022/11/23 06:40:28;;;;;;;8.38;4.45;;;;;;;3.95;100.00;95055.53;5069446;28;20040;-89
2022/11/23 06:42:58;;;;;;;10.63;4.50;;;;;;;3.97;100.00;95053.31;5052792;28;20045;-86
2022/11/23 06:45:27;;;;;;;8.98;4.30;;;;;;;3.97;100.00;95054.13;5049196;28;20059;-88
2022/11/23 06:47:54;;;;;;;10.57;3.97;;;;;;;4.00;100.00;95063.47;5049244;28;20455;-88
2022/11/23 06:50:21;;;;;;;8.82;4.28;;;;;;;4.00;100.00;95058.09;5049226;28;20049;-88
2022/11/23 06:52:47;;;;;;;6.32;3.72;;;;;;;4.04;100.00;95054.47;5049280;28;20384;-88
2022/11/23 06:55:14;;;;;;;7.13;3.90;;;;;;;4.05;100.00;95061.47;5055662;28;20549;-88
2022/11/23 06:57:41;;;;;;;8.85;3.60;;;;;;;4.01;100.00;95059.69;5049577;28;20045;-86
2022/11/23 07:00:10;;;;;;;6.03;4.00;;;;;;;4.10;100.00;95065.91;5048982;28;20052;-88
2022/11/23 07:02:38;;;;;;;4.88;3.42;;;;;;;4.20;100.00;95057.59;5049589;28;20095;-88
2022/11/23 07:05:05;;;;;;;9.13;3.63;;;;;;;4.29;100.00;95077.28;5048776;28;20599;-77
2022/11/23 07:07:31;;;;;;;5.95;3.35;;;;;;;4.26;100.00;95075.19;5049385;28;20051;-77
2022/11/23 07:09:58;;;;;;;8.65;3.70;;;;;;;4.33;100.00;95072.88;5049369;28;20037;-76
2022/11/23 07:12:24;;;;;;;4.97;3.28;;;;;;;4.41;100.00;95084.81;5061906;28;20044;-78
2022/11/23 07:14:51;;;;;;;9.15;3.90;;;;;;;4.52;100.00;95080.72;5053617;28;20060;-78
2022/11/23 07:17:18;;;;;;;8.27;3.35;;;;;;;4.61;100.00;95083.47;5048776;28;20045;-77
2022/11/23 07:19:46;;;;;;;8.43;3.15;;;;;;;4.69;100.00;95080.78;5049035;28;20124;-77
2022/11/23 07:22:12;;;;;;;5.90;2.65;;;;;;;4.78;100.00;95080.03;5052581;28;20049;-78
2022/11/23 07:24:39;;;;;;;3.33;2.60;;;;;;;4.83;100.00;95079.91;5068087;28;20128;-79
2022/11/23 07:27:05;;;;;;;14.32;2.95;;;;;;;4.78;100.00;95088.13;5066892;28;20431;-78
2022/11/23 07:29:32;;;;;;;4.47;2.40;;;;;;;4.79;100.00;95087.03;5064882;28;20044;-78
2022/11/23 07:31:59;;;;;;;6.50;2.50;;;;;;;4.80;100.00;95092.09;5071690;28;20051;-77
2022/11/23 07:34:25;;;;;;;6.20;2.33;;;;;;;4.85;100.00;95094.66;5061720;28;20120;-79
2022/11/23 07:36:53;;;;;;;7.07;2.72;;;;;;;4.80;100.00;95091.31;5052307;28;20051;-79
2022/11/23 07:39:20;;;;;;;5.82;2.83;;;;;;;4.84;100.00;95093.06;5052142;28;20045;-79
2022/11/23 07:41:48;;;;;;;8.18;2.67;;;;;;;4.84;99.95;95089.56;5059703;28;20041;-78
2022/11/23 07:44:15;;;;;;;4.60;2.50;;;;;;;4.89;99.28;95095.63;5059037;28;20037;-80
2022/11/23 07:46:41;;;;;;;7.28;2.90;;;;;;;4.92;99.04;95100.41;5052406;28;20051;-79
2022/11/23 07:49:08;;;;;;;4.25;2.70;;;;;;;4.88;98.79;95099.44;5051519;28;20392;-77
2022/11/23 07:51:34;;;;;;;7.47;3.05;;;;;;;4.96;98.69;95112.16;5052257;28;20083;-78
2022/11/23 07:54:02;;;;;;;6.20;2.60;;;;;;;5.00;98.71;95111.53;5053172;28;20048;-77
2022/11/23 07:56:29;;;;;;;5.72;3.25;;;;;;;5.03;98.45;95116.31;5051802;28;20048;-77
2022/11/23 07:58:55;;;;;;;6.05;3.13;;;;;;;4.98;98.34;95112.66;5052212;28;20128;-87
2022/11/23 08:01:22;;;;;;;7.80;3.40;;;;;;;5.06;98.33;95115.66;5054109;28;20504;-87
2022/11/23 08:03:49;;;;;;;7.50;3.60;;;;;;;5.11;98.14;95108.22;5062094;28;20040;-87
2022/11/23 08:06:16;;;;;;;7.55;3.55;;;;;;;5.13;98.27;95102.53;5051652;28;20123;-87
2022/11/23 08:08:43;;;;;;;8.40;3.78;;;;;;;5.11;98.31;95105.53;5052668;28;20048;-87
2022/11/23 08:11:13;;;;;;;6.20;3.17;;;;;;;5.02;97.93;95110.13;5068643;28;20047;-87
2022/11/23 08:13:40;;;;;;;7.28;3.10;;;;;;;5.08;97.83;95108.06;5060193;28;20068;-87
2022/11/23 08:16:07;;;;;;;5.38;3.17;;;;;;;5.05;97.29;95114.09;5070780;28;20444;-87
2022/11/23 08:18:33;;;;;;;5.95;3.00;;;;;;;5.18;97.20;95113.19;5069799;28;20048;-87
2022/11/23 08:21:00;;;;;;;8.05;3.47;;;;;;;5.26;96.75;95114.31;5054047;28;20036;-87
2022/11/23 08:23:27;;;;;;;7.15;3.10;;;;;;;5.27;96.79;95111.28;5065818;28;20044;-87
2022/11/23 08:25:53;;;;;;;6.78;3.03;;;;;;;5.28;96.31;95115.59;5060253;28;20047;-84
2022/11/23 08:28:22;;;;;;;9.93;4.72;;;;;;;5.41;96.85;95111.94;5051166;28;20045;-85
2022/11/23 08:30:49;;;;;;;7.75;3.25;;;;;;;5.57;96.75;95114.19;5052866;28;20048;-87
2022/11/23 08:33:16;;;;;;;7.13;3.03;;;;;;;5.59;96.35;95112.00;5062724;28;20040;-86
2022/11/23 08:35:43;;;;;;;6.15;3.20;;;;;;;5.63;95.59;95112.94;5056702;28;20041;-86
2022/11/23 08:38:10;;;;;;;4.68;2.67;;;;;;;5.59;94.41;95117.41;5052185;28;20407;-85
2022/11/23 08:40:38;;;;;;;5.28;2.42;;;;;;;5.73;93.68;95118.03;5069734;28;20051;-86
2022/11/23 08:43:05;;;;;;;5.07;2.60;;;;;;;5.62;92.63;95122.16;5053860;28;20037;-87
2022/11/23 08:45:33;;;;;;;3.88;2.67;;;;;;;5.57;92.83;95116.91;5062569;28;20044;-87
2022/11/23 08:48:00;;;;;;;4.68;2.25;;;;;;;5.72;93.09;95127.25;5070803;28;20061;-88
2022/11/23 08:50:28;;;;;;;4.50;2.30;;;;;;;5.78;92.93;95115.16;5054572;28;20404;-86
2022/11/23 08:52:55;;;;;;;4.78;2.53;;;;;;;5.83;92.71;95125.81;5051229;28;20099;-87
2022/11/23 08:55:22;;;;;;;4.43;2.38;;;;;;;5.86;92.29;95124.41;5060069;28;20106;-88
2022/11/23 08:57:49;;;;;;;4.20;2.90;;;;;;;5.89;92.05;95127.25;5066704;28;20060;-87
2022/11/23 09:00:16;;;;;;;3.78;2.13;;;;;;;5.92;91.52;95126.66;5066950;28;20048;-85
2022/11/23 09:02:44;;;;;;;6.22;2.50;;;;;;;5.88;89.99;95125.66;5070941;28;20055;-84
2022/11/23 09:05:11;;;;;;;5.45;2.20;;;;;;;5.97;90.12;95129.19;5070127;28;20437;-87
2022/11/23 09:07:37;;;;;;;6.75;2.30;;;;;;;6.03;89.31;95123.63;5070861;28;20057;-86
2022/11/23 09:10:05;;;;;;;4.90;2.30;;;;;;;6.08;90.08;95128.88;5067591;28;20047;-87
2022/11/23 09:12:32;;;;;;;6.18;2.25;;;;;;;6.18;90.23;95131.25;5064869;28;20049;-84
2022/11/23 09:14:59;;;;;;;4.22;2.13;;;;;;;6.32;90.50;95129.19;5050619;28;20496;-87
2022/11/23 09:17:25;;;;;;;4.13;2.10;;;;;;;6.45;90.67;95121.97;5066570;28;20068;-85
2022/11/23 09:19:53;;;;;;;6.25;2.17;;;;;;;6.39;89.25;95124.06;5070698;28;20121;-86
2022/11/23 09:22:20;;;;;;;4.38;2.13;;;;;;;6.38;88.58;95127.88;5069994;28;20123;-87
2022/11/23 09:24:46;;;;;;;3.53;2.00;;;;;;;6.49;89.12;95112.91;5070519;28;20148;-87
2022/11/23 09:27:13;;;;;;;4.22;1.98;;;;;;;6.61;89.32;95114.16;5067900;28;20040;-87
2022/11/23 09:29:39;;;;;;;5.00;2.08;;;;;;;6.64;88.67;95108.09;5050637;28;20037;-87
2022/11/23 09:32:06;;;;;;;5.72;2.33;;;;;;;6.72;88.88;95116.19;5064632;28;20052;-86
2022/11/23 09:34:33;;;;;;;9.35;2.47;;;;;;;6.79;88.82;95110.28;5054175;28;20124;-87
2022/11/23 09:37:01;;;;;;;4.80;2.00;;;;;;;6.92;89.59;95114.69;5061644;28;20068;-87
2022/11/23 09:39:27;;;;;;;6.53;2.60;;;;;;;6.96;88.82;95120.25;5060803;28;20055;-86
2022/11/23 09:42:17;;;;;;;6.43;3.03;;;;;;;7.01;87.29;95118.16;5055491;28;20052;-86
2022/11/23 09:44:58;;;;;;;6.82;2.20;;;;;;;7.00;86.80;95113.84;5056496;28;20037;-86
2022/11/23 09:47:39;;;;;;;6.85;2.10;;;;;;;7.02;85.97;95111.59;5069499;28;20051;-87
2022/11/23 09:50:13;;;;;;;5.22;1.80;;;;;;;7.02;85.26;95113.53;5069404;28;20047;-85
2022/11/23 09:52:45;;;;;;;6.68;2.10;;;;;;;6.92;86.05;95109.25;5069818;28;20499;-86
2022/11/23 09:55:17;;;;;;;3.67;1.92;;;;;;;6.84;85.36;95107.41;5064976;28;20059;-86
2022/11/23 09:57:47;;;;;;;5.28;1.80;;;;;;;6.90;85.69;95111.50;5061457;28;20040;-86
2022/11/23 10:00:20;;;;;;;3.85;1.90;;;;;;;6.85;84.34;95108.97;5050653;28;20066;-86
2022/11/23 10:02:47;;;;;;;6.45;1.98;;;;;;;6.72;84.81;95109.97;5053915;28;20080;-85
2022/11/23 10:05:18;;;;;;;5.05;2.20;;;;;;;6.74;84.60;95110.47;5060297;28;20040;-87
2022/11/23 10:08:04;;;;;;;4.38;1.88;;;;;;;6.79;84.74;95100.25;5069264;28;20426;-87
2022/11/23 10:10:41;;;;;;;5.13;2.00;;;;;;;6.81;83.84;95105.34;5052540;28;20037;-87
2022/11/23 10:13:25;;;;;;;6.82;1.95;;;;;;;6.82;84.05;95104.22;5063021;28;20043;-87
2022/11/23 10:16:02;;;;;;;3.55;1.95;;;;;;;6.77;83.27;95101.69;5050722;28;20132;-87
2022/11/23 10:18:39;;;;;;;7.28;1.55;;;;;;;6.74;83.76;95096.94;5056500;28;20050;-87
2022/11/23 10:21:18;;;;;;;3.25;1.50;;;;;;;6.88;83.81;95097.50;5069092;28;20041;-86
2022/11/23 10:23:59;;;;;;;3.75;1.85;;;;;;;7.04;85.32;95095.03;5068141;28;20051;-86
2022/11/23 10:26:30;;;;;;;5.30;1.95;;;;;;;7.10;85.77;95090.22;5059688;28;20045;-85
2022/11/23 10:29:06;;;;;;;6.70;2.08;;;;;;;7.03;85.46;95090.75;5062205;28;20067;-86
2022/11/23 10:31:33;;;;;;;4.28;2.20;;;;;;;7.06;85.66;95088.19;5056292;28;20445;-86
2022/11/23 10:34:09;;;;;;;6.22;2.50;;;;;;;6.93;83.79;95097.31;5068357;28;20047;-87
2022/11/23 10:36:36;;;;;;;6.72;1.70;;;;;;;6.50;82.06;95087.44;5054923;28;20041;-86
2022/11/23 10:39:16;;;;;;;6.60;2.25;;;;;;;6.46;83.78;95089.19;5068974;28;20041;-85
2022/11/23 10:41:44;;;;;;;5.53;1.92;;;;;;;7.18;85.00;95075.88;5062519;28;20495;-85
2022/11/23 10:44:25;;;;;;;3.70;1.73;;;;;;;7.97;83.86;95083.09;5049198;28;20123;-86
2022/11/23 10:46:52;;;;;;;5.47;1.52;;;;;;;8.21;79.48;95078.94;5063974;28;20044;-87
2022/11/23 10:49:21;;;;;;;3.75;1.10;;;;;;;8.15;74.96;95085.69;5048733;28;20047;-84
2022/11/23 10:51:53;;;;;;;4.50;1.30;;;;;;;7.96;76.34;95076.09;5054537;28;20068;-86
2022/11/23 10:54:26;;;;;;;2.83;0.90;;;;;;;8.09;76.64;95075.06;5062484;28;20055;-86
2022/11/23 10:56:54;;;;;;;5.05;1.27;;;;;;;8.10;73.61;95065.78;5071481;28;20043;-87
2022/11/23 10:59:36;;;;;;;3.45;1.08;;;;;;;8.19;72.49;95078.44;5062867;28;20075;-86
2022/11/23 11:02:16;;;;;;;4.38;1.83;;;;;;;8.18;69.74;95072.25;5060884;28;20041;-86
2022/11/23 11:04:43;;;;;;;3.75;1.00;;;;;;;8.27;71.07;95069.44;5072823;28;20044;-84
2022/11/23 11:07:25;;;;;;;4.00;1.38;;;;;;;8.28;72.21;95068.31;5070920;28;20040;-87
2022/11/23 11:09:56;;;;;;;5.22;1.67;;;;;;;8.46;73.68;95066.28;5072662;28;20177;-87
2022/11/23 11:12:23;;;;;;;3.35;1.27;;;;;;;8.81;75.84;95061.22;5059710;28;20052;-87
2022/11/23 11:15:01;;;;;;;3.80;1.40;;;;;;;9.10;72.15;95058.31;5057862;28;20078;-85
2022/11/23 11:17:30;;;;;;;4.35;1.25;;;;;;;9.06;68.11;95060.09;5071670;28;20719;-86
2022/11/23 11:19:57;;;;;;;4.13;1.45;;;;;;;9.29;67.37;95060.47;5064262;28;20084;-86
2022/11/23 11:22:33;;;;;;;3.67;1.35;;;;;;;9.62;67.42;95059.50;5066487;28;20045;-86
2022/11/23 11:25:03;;;;;;;4.47;1.35;;;;;;;9.68;65.17;95056.19;5072629;28;20036;-87
2022/11/23 11:27:31;;;;;;;3.17;1.10;;;;;;;9.46;63.28;95067.56;5064719;28;20518;-85
2022/11/23 11:30:04;;;;;;;5.07;1.50;;;;;;;9.35;65.68;95069.94;5072480;28;20048;-86
2022/11/23 11:32:40;;;;;;;6.63;1.50;;;;;;;8.78;65.43;95062.72;5070549;28;20051;-86
2022/11/23 11:35:15;;;;;;;4.30;1.95;;;;;;;8.71;66.93;95048.09;5072147;28;20047;-85
2022/11/23 11:37:44;;;;;;;5.15;1.40;;;;;;;8.49;66.20;95052.81;5061850;28;20068;-86
2022/11/23 11:40:20;;;;;;;3.30;1.25;;;;;;;8.43;66.87;95056.88;5052142;28;20057;-85
2022/11/23 11:42:53;;;;;;;3.45;1.42;;;;;;;8.46;68.00;95058.13;5060066;28;20041;-84